sensor_id;sensor_type;location;lat;lon;timestamp;temperature;humidity
68766;DHT22;55756;45.582;11.484;2022-09-20T00:01:07;16.60;47.70
68766;DHT22;55756;45.582;11.484;2022-09-20T00:03:38;16.60;47.90
68766;DHT22;55756;45.582;11.484;2022-09-20T00:06:07;16.60;47.60
68766;DHT22;55756;45.582;11.484;2022-09-20T00:08:34;16.60;47.50
68766;DHT22;55756;45.582;11.484;2022-09-20T00:11:05;16.60;47.60
68766;DHT22;55756;45.582;11.484;2022-09-20T00:13:32;16.60;48.10
68766;DHT22;55756;45.582;11.484;2022-09-20T00:15:58;16.60;48.10
68766;DHT22;55756;45.582;11.484;2022-09-20T00:18:25;16.50;48.00
68766;DHT22;55756;45.582;11.484;2022-09-20T00:20:51;16.50;47.90
68766;DHT22;55756;45.582;11.484;2022-09-20T00:23:18;16.50;48.30
68766;DHT22;55756;45.582;11.484;2022-09-20T00:25:45;16.50;48.40
68766;DHT22;55756;45.582;11.484;2022-09-20T00:28:18;16.50;48.50
68766;DHT22;55756;45.582;11.484;2022-09-20T00:30:44;16.50;48.60
68766;DHT22;55756;45.582;11.484;2022-09-20T00:33:09;16.50;48.70
68766;DHT22;55756;45.582;11.484;2022-09-20T00:35:35;16.40;48.40
68766;DHT22;55756;45.582;11.484;2022-09-20T00:38:01;16.50;48.40
68766;DHT22;55756;45.582;11.484;2022-09-20T00:40:27;16.60;48.30
68766;DHT22;55756;45.582;11.484;2022-09-20T00:42:53;16.50;48.80
68766;DHT22;55756;45.582;11.484;2022-09-20T00:45:22;16.60;48.50
68766;DHT22;55756;45.582;11.484;2022-09-20T00:50:36;16.60;49.20
68766;DHT22;55756;45.582;11.484;2022-09-20T00:53:23;16.50;50.00
68766;DHT22;55756;45.582;11.484;2022-09-20T00:55:58;16.30;51.30
68766;DHT22;55756;45.582;11.484;2022-09-20T00:58:25;16.20;52.60
68766;DHT22;55756;45.582;11.484;2022-09-20T01:00:54;16.20;51.80
68766;DHT22;55756;45.582;11.484;2022-09-20T01:03:21;16.20;51.20
68766;DHT22;55756;45.582;11.484;2022-09-20T01:05:53;16.20;51.30
68766;DHT22;55756;45.582;11.484;2022-09-20T01:08:21;16.00;52.50
68766;DHT22;55756;45.582;11.484;2022-09-20T01:10:49;15.80;53.30
68766;DHT22;55756;45.582;11.484;2022-09-20T01:13:15;15.70;53.60
68766;DHT22;55756;45.582;11.484;2022-09-20T01:15:43;15.60;54.30
68766;DHT22;55756;45.582;11.484;2022-09-20T01:18:10;15.60;54.60
68766;DHT22;55756;45.582;11.484;2022-09-20T01:20:39;15.40;55.30
68766;DHT22;55756;45.582;11.484;2022-09-20T01:31:34;14.70;57.20
68766;DHT22;55756;45.582;11.484;2022-09-20T01:34:10;14.70;57.30
68766;DHT22;55756;45.582;11.484;2022-09-20T01:36:46;14.60;57.70
68766;DHT22;55756;45.582;11.484;2022-09-20T01:42:11;14.50;58.00
68766;DHT22;55756;45.582;11.484;2022-09-20T01:47:30;14.20;59.10
68766;DHT22;55756;45.582;11.484;2022-09-20T01:50:24;14.20;59.20
68766;DHT22;55756;45.582;11.484;2022-09-20T02:10:00;14.00;60.10
68766;DHT22;55756;45.582;11.484;2022-09-20T02:23:56;13.80;59.20
68766;DHT22;55756;45.582;11.484;2022-09-20T02:26:35;13.90;59.00
68766;DHT22;55756;45.582;11.484;2022-09-20T02:40:37;14.00;58.80
68766;DHT22;55756;45.582;11.484;2022-09-20T02:43:10;13.90;57.90
68766;DHT22;55756;45.582;11.484;2022-09-20T02:48:26;13.90;57.60
68766;DHT22;55756;45.582;11.484;2022-09-20T02:51:00;14.00;57.10
68766;DHT22;55756;45.582;11.484;2022-09-20T02:53:54;14.00;56.70
68766;DHT22;55756;45.582;11.484;2022-09-20T02:56:35;14.00;56.00
68766;DHT22;55756;45.582;11.484;2022-09-20T03:09:57;13.90;52.80
68766;DHT22;55756;45.582;11.484;2022-09-20T03:13:02;13.90;52.40
68766;DHT22;55756;45.582;11.484;2022-09-20T03:15:44;14.00;51.90
68766;DHT22;55756;45.582;11.484;2022-09-20T03:18:24;14.10;51.60
68766;DHT22;55756;45.582;11.484;2022-09-20T03:21:00;14.10;50.90
68766;DHT22;55756;45.582;11.484;2022-09-20T03:31:50;14.00;50.60
68766;DHT22;55756;45.582;11.484;2022-09-20T03:37:44;14.20;51.20
68766;DHT22;55756;45.582;11.484;2022-09-20T03:42:51;14.30;51.30
68766;DHT22;55756;45.582;11.484;2022-09-20T03:56:08;14.50;51.30
68766;DHT22;55756;45.582;11.484;2022-09-20T04:10:19;14.20;54.10
68766;DHT22;55756;45.582;11.484;2022-09-20T04:13:43;14.10;54.80
68766;DHT22;55756;45.582;11.484;2022-09-20T04:18:36;13.90;55.90
68766;DHT22;55756;45.582;11.484;2022-09-20T04:21:16;13.90;56.50
68766;DHT22;55756;45.582;11.484;2022-09-20T04:24:09;13.80;57.20
68766;DHT22;55756;45.582;11.484;2022-09-20T04:26:49;13.80;57.50
68766;DHT22;55756;45.582;11.484;2022-09-20T04:32:18;13.60;59.10
68766;DHT22;55756;45.582;11.484;2022-09-20T04:38:00;13.50;60.10
68766;DHT22;55756;45.582;11.484;2022-09-20T04:49:19;13.60;61.30
68766;DHT22;55756;45.582;11.484;2022-09-20T04:55:08;13.50;61.20
68766;DHT22;55756;45.582;11.484;2022-09-20T05:06:12;13.40;61.10
68766;DHT22;55756;45.582;11.484;2022-09-20T05:25:38;13.80;57.60
68766;DHT22;55756;45.582;11.484;2022-09-20T05:30:44;14.30;55.70
68766;DHT22;55756;45.582;11.484;2022-09-20T05:36:09;14.90;54.10
68766;DHT22;55756;45.582;11.484;2022-09-20T05:50:59;17.40;47.20
68766;DHT22;55756;45.582;11.484;2022-09-20T05:56:51;18.30;44.70
68766;DHT22;55756;45.582;11.484;2022-09-20T06:02:42;19.20;43.60
68766;DHT22;55756;45.582;11.484;2022-09-20T06:05:16;19.80;42.40
68766;DHT22;55756;45.582;11.484;2022-09-20T06:15:58;21.20;39.20
68766;DHT22;55756;45.582;11.484;2022-09-20T06:18:37;21.90;38.50
68766;DHT22;55756;45.582;11.484;2022-09-20T06:23:39;23.00;36.90
68766;DHT22;55756;45.582;11.484;2022-09-20T06:26:16;23.60;36.30
68766;DHT22;55756;45.582;11.484;2022-09-20T06:28:50;24.00;35.90
68766;DHT22;55756;45.582;11.484;2022-09-20T06:31:17;24.20;35.40
68766;DHT22;55756;45.582;11.484;2022-09-20T06:34:05;24.60;35.40
68766;DHT22;55756;45.582;11.484;2022-09-20T06:36:35;24.90;35.10
68766;DHT22;55756;45.582;11.484;2022-09-20T06:42:32;25.10;35.30
68766;DHT22;55756;45.582;11.484;2022-09-20T06:44:58;24.90;35.20
68766;DHT22;55756;45.582;11.484;2022-09-20T06:47:24;25.20;35.00
68766;DHT22;55756;45.582;11.484;2022-09-20T06:49:50;25.30;33.90
68766;DHT22;55756;45.582;11.484;2022-09-20T06:52:18;25.40;34.00
68766;DHT22;55756;45.582;11.484;2022-09-20T06:54:46;26.40;32.70
68766;DHT22;55756;45.582;11.484;2022-09-20T06:57:15;27.10;32.40
68766;DHT22;55756;45.582;11.484;2022-09-20T06:59:43;29.10;30.00
68766;DHT22;55756;45.582;11.484;2022-09-20T07:02:08;31.20;27.20
68766;DHT22;55756;45.582;11.484;2022-09-20T07:04:35;32.80;25.40
68766;DHT22;55756;45.582;11.484;2022-09-20T07:07:03;34.00;24.30
68766;DHT22;55756;45.582;11.484;2022-09-20T07:09:30;35.00;23.90
68766;DHT22;55756;45.582;11.484;2022-09-20T07:11:56;35.40;23.60
68766;DHT22;55756;45.582;11.484;2022-09-20T07:14:24;36.30;22.80
68766;DHT22;55756;45.582;11.484;2022-09-20T07:16:51;36.20;23.20
68766;DHT22;55756;45.582;11.484;2022-09-20T07:19:17;36.50;22.80
68766;DHT22;55756;45.582;11.484;2022-09-20T07:21:43;37.60;22.00
68766;DHT22;55756;45.582;11.484;2022-09-20T07:24:09;38.50;21.60
68766;DHT22;55756;45.582;11.484;2022-09-20T07:26:35;39.80;20.80
68766;DHT22;55756;45.582;11.484;2022-09-20T07:29:03;40.90;20.00
68766;DHT22;55756;45.582;11.484;2022-09-20T07:31:30;41.60;19.40
68766;DHT22;55756;45.582;11.484;2022-09-20T07:33:55;41.80;19.40
68766;DHT22;55756;45.582;11.484;2022-09-20T07:36:21;41.10;19.90
68766;DHT22;55756;45.582;11.484;2022-09-20T07:38:49;41.80;19.20
68766;DHT22;55756;45.582;11.484;2022-09-20T07:41:16;41.40;19.10
68766;DHT22;55756;45.582;11.484;2022-09-20T07:43:47;41.90;19.00
68766;DHT22;55756;45.582;11.484;2022-09-20T07:46:13;42.20;18.50
68766;DHT22;55756;45.582;11.484;2022-09-20T07:48:39;42.70;19.00
68766;DHT22;55756;45.582;11.484;2022-09-20T07:51:08;43.00;18.50
68766;DHT22;55756;45.582;11.484;2022-09-20T07:53:35;41.60;19.30
68766;DHT22;55756;45.582;11.484;2022-09-20T07:58:34;38.60;20.60
68766;DHT22;55756;45.582;11.484;2022-09-20T08:01:03;40.40;19.40
68766;DHT22;55756;45.582;11.484;2022-09-20T08:03:31;42.40;18.70
68766;DHT22;55756;45.582;11.484;2022-09-20T08:06:06;44.70;17.30
68766;DHT22;55756;45.582;11.484;2022-09-20T08:08:36;45.90;16.30
68766;DHT22;55756;45.582;11.484;2022-09-20T08:11:07;47.20;15.60
68766;DHT22;55756;45.582;11.484;2022-09-20T08:13:45;48.10;14.40
68766;DHT22;55756;45.582;11.484;2022-09-20T08:16:11;47.90;14.20
68766;DHT22;55756;45.582;11.484;2022-09-20T08:18:52;47.80;13.80
68766;DHT22;55756;45.582;11.484;2022-09-20T08:21:21;47.30;14.30
68766;DHT22;55756;45.582;11.484;2022-09-20T08:23:47;48.20;13.80
68766;DHT22;55756;45.582;11.484;2022-09-20T08:26:18;47.70;13.80
68766;DHT22;55756;45.582;11.484;2022-09-20T08:28:45;48.30;13.50
68766;DHT22;55756;45.582;11.484;2022-09-20T08:31:14;48.60;13.10
68766;DHT22;55756;45.582;11.484;2022-09-20T08:33:41;49.10;13.20
68766;DHT22;55756;45.582;11.484;2022-09-20T08:36:11;49.20;13.00
68766;DHT22;55756;45.582;11.484;2022-09-20T08:38:37;47.80;13.30
68766;DHT22;55756;45.582;11.484;2022-09-20T08:46:35;45.40;14.60
68766;DHT22;55756;45.582;11.484;2022-09-20T08:49:05;44.30;14.90
68766;DHT22;55756;45.582;11.484;2022-09-20T08:51:36;43.90;15.10
68766;DHT22;55756;45.582;11.484;2022-09-20T08:54:06;40.30;16.70
68766;DHT22;55756;45.582;11.484;2022-09-20T08:56:39;35.20;20.20
68766;DHT22;55756;45.582;11.484;2022-09-20T08:59:07;32.20;22.20
68766;DHT22;55756;45.582;11.484;2022-09-20T09:01:38;30.40;23.60
68766;DHT22;55756;45.582;11.484;2022-09-20T09:04:15;29.60;24.50
68766;DHT22;55756;45.582;11.484;2022-09-20T09:06:42;28.80;25.80
68766;DHT22;55756;45.582;11.484;2022-09-20T09:09:18;27.70;27.30
68766;DHT22;55756;45.582;11.484;2022-09-20T09:11:45;27.40;27.90
68766;DHT22;55756;45.582;11.484;2022-09-20T09:14:33;27.40;28.00
68766;DHT22;55756;45.582;11.484;2022-09-20T09:22:20;26.50;29.30
68766;DHT22;55756;45.582;11.484;2022-09-20T09:25:26;26.40;28.70
68766;DHT22;55756;45.582;11.484;2022-09-20T09:30:35;26.30;29.70
68766;DHT22;55756;45.582;11.484;2022-09-20T09:33:28;26.20;29.90
68766;DHT22;55756;45.582;11.484;2022-09-20T09:35:59;25.80;30.40
68766;DHT22;55756;45.582;11.484;2022-09-20T09:38:37;25.00;31.30
68766;DHT22;55756;45.582;11.484;2022-09-20T09:41:06;24.00;32.80
68766;DHT22;55756;45.582;11.484;2022-09-20T09:43:36;23.50;33.90
68766;DHT22;55756;45.582;11.484;2022-09-20T09:46:23;23.50;33.00
68766;DHT22;55756;45.582;11.484;2022-09-20T09:49:15;23.90;33.10
68766;DHT22;55756;45.582;11.484;2022-09-20T09:52:15;23.80;33.50
68766;DHT22;55756;45.582;11.484;2022-09-20T09:54:51;23.70;34.60
68766;DHT22;55756;45.582;11.484;2022-09-20T10:21:42;23.40;36.60
68766;DHT22;55756;45.582;11.484;2022-09-20T10:25:00;23.20;36.40
68766;DHT22;55756;45.582;11.484;2022-09-20T10:32:20;22.70;36.90
68766;DHT22;55756;45.582;11.484;2022-09-20T10:37:23;23.30;37.30
68766;DHT22;55756;45.582;11.484;2022-09-20T10:42:59;23.00;37.80
68766;DHT22;55756;45.582;11.484;2022-09-20T10:48:30;23.10;37.50
68766;DHT22;55756;45.582;11.484;2022-09-20T10:56:32;23.30;36.70
68766;DHT22;55756;45.582;11.484;2022-09-20T11:02:16;23.20;35.80
68766;DHT22;55756;45.582;11.484;2022-09-20T11:07:46;23.40;34.80
68766;DHT22;55756;45.582;11.484;2022-09-20T11:13:43;23.80;35.10
68766;DHT22;55756;45.582;11.484;2022-09-20T11:18:53;23.60;35.90
68766;DHT22;55756;45.582;11.484;2022-09-20T11:26:59;23.90;36.60
68766;DHT22;55756;45.582;11.484;2022-09-20T11:32:13;24.30;37.00
68766;DHT22;55756;45.582;11.484;2022-09-20T11:43:15;24.30;37.10
68766;DHT22;55756;45.582;11.484;2022-09-20T11:45:43;24.50;36.80
68766;DHT22;55756;45.582;11.484;2022-09-20T11:48:24;24.50;36.20
68766;DHT22;55756;45.582;11.484;2022-09-20T11:56:27;24.70;35.50
68766;DHT22;55756;45.582;11.484;2022-09-20T11:58:57;24.80;35.10
68766;DHT22;55756;45.582;11.484;2022-09-20T12:01:33;24.90;35.30
68766;DHT22;55756;45.582;11.484;2022-09-20T12:04:04;24.80;36.10
68766;DHT22;55756;45.582;11.484;2022-09-20T12:06:33;24.50;35.90
68766;DHT22;55756;45.582;11.484;2022-09-20T12:09:03;24.40;36.70
68766;DHT22;55756;45.582;11.484;2022-09-20T12:11:35;24.10;36.80
68766;DHT22;55756;45.582;11.484;2022-09-20T12:14:06;23.90;36.70
68766;DHT22;55756;45.582;11.484;2022-09-20T12:16:45;23.90;37.20
68766;DHT22;55756;45.582;11.484;2022-09-20T12:19:57;23.70;37.10
68766;DHT22;55756;45.582;11.484;2022-09-20T12:24:34;24.00;37.40
68766;DHT22;55756;45.582;11.484;2022-09-20T12:27:19;24.10;38.00
68766;DHT22;55756;45.582;11.484;2022-09-20T12:32:33;24.20;37.60
68766;DHT22;55756;45.582;11.484;2022-09-20T12:35:52;24.20;37.30
68766;DHT22;55756;45.582;11.484;2022-09-20T12:43:27;24.10;37.50
68766;DHT22;55756;45.582;11.484;2022-09-20T12:45:55;24.10;37.90
68766;DHT22;55756;45.582;11.484;2022-09-20T12:48:21;24.00;38.30
68766;DHT22;55756;45.582;11.484;2022-09-20T12:51:25;24.10;38.70
68766;DHT22;55756;45.582;11.484;2022-09-20T12:54:09;24.10;37.90
68766;DHT22;55756;45.582;11.484;2022-09-20T12:56:38;24.10;37.20
68766;DHT22;55756;45.582;11.484;2022-09-20T12:59:17;24.00;37.30
68766;DHT22;55756;45.582;11.484;2022-09-20T13:01:45;24.00;37.50
68766;DHT22;55756;45.582;11.484;2022-09-20T13:04:40;24.00;37.80
68766;DHT22;55756;45.582;11.484;2022-09-20T13:10:02;23.70;38.00
68766;DHT22;55756;45.582;11.484;2022-09-20T13:12:29;23.80;37.70
68766;DHT22;55756;45.582;11.484;2022-09-20T13:14:57;23.90;37.70
68766;DHT22;55756;45.582;11.484;2022-09-20T13:17:27;24.00;39.00
68766;DHT22;55756;45.582;11.484;2022-09-20T13:19:56;23.90;38.80
68766;DHT22;55756;45.582;11.484;2022-09-20T13:22:26;23.70;39.10
68766;DHT22;55756;45.582;11.484;2022-09-20T13:25:01;23.70;39.70
68766;DHT22;55756;45.582;11.484;2022-09-20T13:27:38;23.60;40.10
68766;DHT22;55756;45.582;11.484;2022-09-20T13:32:45;23.70;39.60
68766;DHT22;55756;45.582;11.484;2022-09-20T13:40:32;24.00;39.50
68766;DHT22;55756;45.582;11.484;2022-09-20T13:43:11;24.20;39.60
68766;DHT22;55756;45.582;11.484;2022-09-20T13:45:42;24.20;38.50
68766;DHT22;55756;45.582;11.484;2022-09-20T13:48:08;24.40;38.20
68766;DHT22;55756;45.582;11.484;2022-09-20T13:50:35;24.50;38.60
68766;DHT22;55756;45.582;11.484;2022-09-20T13:53:14;24.70;37.10
68766;DHT22;55756;45.582;11.484;2022-09-20T13:55:41;24.90;36.90
68766;DHT22;55756;45.582;11.484;2022-09-20T14:00:54;25.30;36.60
68766;DHT22;55756;45.582;11.484;2022-09-20T14:03:21;25.30;37.20
68766;DHT22;55756;45.582;11.484;2022-09-20T14:05:54;25.30;37.90
68766;DHT22;55756;45.582;11.484;2022-09-20T14:08:27;25.20;37.40
68766;DHT22;55756;45.582;11.484;2022-09-20T14:13:52;25.00;37.50
68766;DHT22;55756;45.582;11.484;2022-09-20T14:16:27;24.90;37.80
68766;DHT22;55756;45.582;11.484;2022-09-20T14:18:55;24.80;37.00
68766;DHT22;55756;45.582;11.484;2022-09-20T14:21:25;24.70;36.50
68766;DHT22;55756;45.582;11.484;2022-09-20T14:23:52;24.50;37.20
68766;DHT22;55756;45.582;11.484;2022-09-20T14:26:26;24.50;37.30
68766;DHT22;55756;45.582;11.484;2022-09-20T14:28:53;24.40;37.30
68766;DHT22;55756;45.582;11.484;2022-09-20T14:31:29;24.40;37.50
68766;DHT22;55756;45.582;11.484;2022-09-20T14:34:00;24.40;38.10
68766;DHT22;55756;45.582;11.484;2022-09-20T14:36:28;24.30;38.30
68766;DHT22;55756;45.582;11.484;2022-09-20T14:39:02;24.30;38.40
68766;DHT22;55756;45.582;11.484;2022-09-20T14:41:38;24.30;37.90
68766;DHT22;55756;45.582;11.484;2022-09-20T14:44:16;24.30;39.30
68766;DHT22;55756;45.582;11.484;2022-09-20T14:46:47;24.20;40.10
68766;DHT22;55756;45.582;11.484;2022-09-20T14:57:40;24.10;39.70
68766;DHT22;55756;45.582;11.484;2022-09-20T15:00:14;24.10;39.90
68766;DHT22;55756;45.582;11.484;2022-09-20T15:02:44;24.00;40.10
68766;DHT22;55756;45.582;11.484;2022-09-20T15:05:23;24.10;39.80
68766;DHT22;55756;45.582;11.484;2022-09-20T15:07:52;24.20;39.80
68766;DHT22;55756;45.582;11.484;2022-09-20T15:10:18;24.10;39.90
68766;DHT22;55756;45.582;11.484;2022-09-20T15:12:45;24.00;40.40
68766;DHT22;55756;45.582;11.484;2022-09-20T15:15:12;23.90;40.40
68766;DHT22;55756;45.582;11.484;2022-09-20T15:17:42;23.80;41.00
68766;DHT22;55756;45.582;11.484;2022-09-20T15:20:17;23.80;41.50
68766;DHT22;55756;45.582;11.484;2022-09-20T15:22:46;23.80;41.50
68766;DHT22;55756;45.582;11.484;2022-09-20T15:25:16;23.60;41.60
68766;DHT22;55756;45.582;11.484;2022-09-20T15:27:44;23.60;41.90
68766;DHT22;55756;45.582;11.484;2022-09-20T15:30:14;23.60;41.60
68766;DHT22;55756;45.582;11.484;2022-09-20T15:32:44;23.70;41.40
68766;DHT22;55756;45.582;11.484;2022-09-20T15:35:11;23.70;41.50
68766;DHT22;55756;45.582;11.484;2022-09-20T15:37:39;23.70;41.40
68766;DHT22;55756;45.582;11.484;2022-09-20T15:40:06;23.60;41.40
68766;DHT22;55756;45.582;11.484;2022-09-20T15:42:33;23.60;41.30
68766;DHT22;55756;45.582;11.484;2022-09-20T15:45:11;23.60;42.10
68766;DHT22;55756;45.582;11.484;2022-09-20T15:47:38;23.60;42.50
68766;DHT22;55756;45.582;11.484;2022-09-20T15:50:05;23.60;42.20
68766;DHT22;55756;45.582;11.484;2022-09-20T15:52:35;23.60;41.80
68766;DHT22;55756;45.582;11.484;2022-09-20T15:55:03;23.60;41.80
68766;DHT22;55756;45.582;11.484;2022-09-20T15:57:30;23.60;42.50
68766;DHT22;55756;45.582;11.484;2022-09-20T15:59:56;23.60;43.50
68766;DHT22;55756;45.582;11.484;2022-09-20T16:02:23;23.50;44.00
68766;DHT22;55756;45.582;11.484;2022-09-20T16:04:49;23.50;44.20
68766;DHT22;55756;45.582;11.484;2022-09-20T16:07:19;23.40;43.90
68766;DHT22;55756;45.582;11.484;2022-09-20T16:09:51;23.40;44.10
68766;DHT22;55756;45.582;11.484;2022-09-20T16:12:18;23.40;44.30
68766;DHT22;55756;45.582;11.484;2022-09-20T16:14:44;23.30;44.80
68766;DHT22;55756;45.582;11.484;2022-09-20T16:17:09;23.30;45.00
68766;DHT22;55756;45.582;11.484;2022-09-20T16:19:35;23.20;45.50
68766;DHT22;55756;45.582;11.484;2022-09-20T16:22:03;23.20;45.30
68766;DHT22;55756;45.582;11.484;2022-09-20T16:24:31;23.10;45.30
68766;DHT22;55756;45.582;11.484;2022-09-20T16:26:59;23.00;45.90
68766;DHT22;55756;45.582;11.484;2022-09-20T16:29:26;22.90;46.30
68766;DHT22;55756;45.582;11.484;2022-09-20T16:31:54;22.90;46.30
68766;DHT22;55756;45.582;11.484;2022-09-20T16:34:22;22.80;46.30
68766;DHT22;55756;45.582;11.484;2022-09-20T16:36:50;22.60;46.60
68766;DHT22;55756;45.582;11.484;2022-09-20T16:39:19;22.50;46.90
68766;DHT22;55756;45.582;11.484;2022-09-20T16:41:46;22.50;47.20
68766;DHT22;55756;45.582;11.484;2022-09-20T16:44:13;22.50;47.30
68766;DHT22;55756;45.582;11.484;2022-09-20T16:46:39;22.50;47.40
68766;DHT22;55756;45.582;11.484;2022-09-20T16:49:06;22.40;47.60
68766;DHT22;55756;45.582;11.484;2022-09-20T16:51:38;22.50;47.80
68766;DHT22;55756;45.582;11.484;2022-09-20T16:54:09;22.40;48.00
68766;DHT22;55756;45.582;11.484;2022-09-20T16:56:40;22.40;48.40
68766;DHT22;55756;45.582;11.484;2022-09-20T16:59:07;22.40;48.60
68766;DHT22;55756;45.582;11.484;2022-09-20T17:01:34;22.30;48.70
68766;DHT22;55756;45.582;11.484;2022-09-20T17:04:02;22.30;49.10
68766;DHT22;55756;45.582;11.484;2022-09-20T17:06:33;22.30;49.30
68766;DHT22;55756;45.582;11.484;2022-09-20T17:08:59;22.20;49.70
68766;DHT22;55756;45.582;11.484;2022-09-20T17:11:31;22.10;50.10
68766;DHT22;55756;45.582;11.484;2022-09-20T17:13:57;22.00;50.40
68766;DHT22;55756;45.582;11.484;2022-09-20T17:16:27;21.90;50.90
68766;DHT22;55756;45.582;11.484;2022-09-20T17:19:07;21.90;50.60
68766;DHT22;55756;45.582;11.484;2022-09-20T17:21:36;21.70;51.00
68766;DHT22;55756;45.582;11.484;2022-09-20T17:24:03;21.70;51.20
68766;DHT22;55756;45.582;11.484;2022-09-20T17:26:33;21.50;51.80
68766;DHT22;55756;45.582;11.484;2022-09-20T17:29:00;21.40;52.20
68766;DHT22;55756;45.582;11.484;2022-09-20T17:31:29;21.30;52.40
68766;DHT22;55756;45.582;11.484;2022-09-20T17:33:57;21.30;52.50
68766;DHT22;55756;45.582;11.484;2022-09-20T17:36:32;21.20;52.80
68766;DHT22;55756;45.582;11.484;2022-09-20T17:38:59;21.20;52.60
68766;DHT22;55756;45.582;11.484;2022-09-20T17:41:26;21.10;52.50
68766;DHT22;55756;45.582;11.484;2022-09-20T17:43:56;21.10;52.80
68766;DHT22;55756;45.582;11.484;2022-09-20T17:46:23;21.10;52.80
68766;DHT22;55756;45.582;11.484;2022-09-20T17:49:00;21.00;53.30
68766;DHT22;55756;45.582;11.484;2022-09-20T17:51:32;20.90;53.50
68766;DHT22;55756;45.582;11.484;2022-09-20T17:53:59;20.90;54.20
68766;DHT22;55756;45.582;11.484;2022-09-20T17:56:26;20.70;54.30
68766;DHT22;55756;45.582;11.484;2022-09-20T17:59:00;20.70;54.50
68766;DHT22;55756;45.582;11.484;2022-09-20T18:01:27;20.60;54.80
68766;DHT22;55756;45.582;11.484;2022-09-20T18:03:55;20.50;55.20
68766;DHT22;55756;45.582;11.484;2022-09-20T18:06:37;20.50;55.50
68766;DHT22;55756;45.582;11.484;2022-09-20T18:09:08;20.40;56.20
68766;DHT22;55756;45.582;11.484;2022-09-20T18:11:39;20.30;56.60
68766;DHT22;55756;45.582;11.484;2022-09-20T18:14:08;20.20;56.70
68766;DHT22;55756;45.582;11.484;2022-09-20T18:16:37;20.20;57.50
68766;DHT22;55756;45.582;11.484;2022-09-20T18:19:05;20.20;57.70
68766;DHT22;55756;45.582;11.484;2022-09-20T18:21:32;20.10;58.30
68766;DHT22;55756;45.582;11.484;2022-09-20T18:24:06;19.90;58.40
68766;DHT22;55756;45.582;11.484;2022-09-20T18:26:33;19.90;58.90
68766;DHT22;55756;45.582;11.484;2022-09-20T18:29:06;19.80;59.10
68766;DHT22;55756;45.582;11.484;2022-09-20T18:34:05;19.60;59.60
68766;DHT22;55756;45.582;11.484;2022-09-20T18:36:33;19.50;59.90
68766;DHT22;55756;45.582;11.484;2022-09-20T18:39:00;19.40;60.00
68766;DHT22;55756;45.582;11.484;2022-09-20T18:41:30;19.40;59.30
68766;DHT22;55756;45.582;11.484;2022-09-20T18:43:57;19.40;59.00
68766;DHT22;55756;45.582;11.484;2022-09-20T18:46:24;19.40;59.00
68766;DHT22;55756;45.582;11.484;2022-09-20T18:48:56;19.40;58.60
68766;DHT22;55756;45.582;11.484;2022-09-20T18:51:23;19.40;58.40
68766;DHT22;55756;45.582;11.484;2022-09-20T18:53:50;19.40;58.50
68766;DHT22;55756;45.582;11.484;2022-09-20T18:56:24;19.40;58.20
68766;DHT22;55756;45.582;11.484;2022-09-20T18:59:18;19.40;58.30
68766;DHT22;55756;45.582;11.484;2022-09-20T19:01:54;19.30;59.00
68766;DHT22;55756;45.582;11.484;2022-09-20T19:04:48;19.20;59.10
68766;DHT22;55756;45.582;11.484;2022-09-20T19:10:27;19.20;59.00
68766;DHT22;55756;45.582;11.484;2022-09-20T19:16:34;19.20;58.60
68766;DHT22;55756;45.582;11.484;2022-09-20T19:22:49;19.20;59.00
68766;DHT22;55756;45.582;11.484;2022-09-20T19:27:10;19.00;59.60
68766;DHT22;55756;45.582;11.484;2022-09-20T19:29:37;18.90;59.50
68766;DHT22;55756;45.582;11.484;2022-09-20T19:32:03;18.80;60.10
68766;DHT22;55756;45.582;11.484;2022-09-20T19:34:30;18.70;60.10
68766;DHT22;55756;45.582;11.484;2022-09-20T19:40:11;18.90;59.70
68766;DHT22;55756;45.582;11.484;2022-09-20T19:45:33;18.90;59.60
68766;DHT22;55756;45.582;11.484;2022-09-20T19:50:41;19.00;59.80
68766;DHT22;55756;45.582;11.484;2022-09-20T19:53:12;19.00;59.70
68766;DHT22;55756;45.582;11.484;2022-09-20T19:55:40;19.00;59.50
68766;DHT22;55756;45.582;11.484;2022-09-20T19:58:11;19.10;59.40
68766;DHT22;55756;45.582;11.484;2022-09-20T20:00:37;19.20;59.20
68766;DHT22;55756;45.582;11.484;2022-09-20T20:03:04;19.30;59.10
68766;DHT22;55756;45.582;11.484;2022-09-20T20:05:30;19.40;59.20
68766;DHT22;55756;45.582;11.484;2022-09-20T20:13:35;19.40;59.00
68766;DHT22;55756;45.582;11.484;2022-09-20T20:25:29;19.40;59.30
68766;DHT22;55756;45.582;11.484;2022-09-20T20:27:59;19.40;59.00
68766;DHT22;55756;45.582;11.484;2022-09-20T20:30:25;19.40;59.10
68766;DHT22;55756;45.582;11.484;2022-09-20T20:32:54;19.40;59.00
68766;DHT22;55756;45.582;11.484;2022-09-20T20:35:23;19.50;59.00
68766;DHT22;55756;45.582;11.484;2022-09-20T20:37:50;19.40;59.80
68766;DHT22;55756;45.582;11.484;2022-09-20T20:40:16;19.20;60.10
68766;DHT22;55756;45.582;11.484;2022-09-20T20:42:42;19.30;60.30
68766;DHT22;55756;45.582;11.484;2022-09-20T20:45:09;19.20;60.70
68766;DHT22;55756;45.582;11.484;2022-09-20T20:47:35;19.20;60.40
68766;DHT22;55756;45.582;11.484;2022-09-20T20:50:01;19.20;60.60
68766;DHT22;55756;45.582;11.484;2022-09-20T20:52:27;19.10;60.80
68766;DHT22;55756;45.582;11.484;2022-09-20T20:54:52;19.00;61.10
68766;DHT22;55756;45.582;11.484;2022-09-20T20:57:18;19.10;61.00
68766;DHT22;55756;45.582;11.484;2022-09-20T20:59:44;19.10;61.00
68766;DHT22;55756;45.582;11.484;2022-09-20T21:02:10;19.10;61.20
68766;DHT22;55756;45.582;11.484;2022-09-20T21:04:36;19.10;61.20
68766;DHT22;55756;45.582;11.484;2022-09-20T21:07:04;19.10;61.20
68766;DHT22;55756;45.582;11.484;2022-09-20T21:09:30;19.00;62.00
68766;DHT22;55756;45.582;11.484;2022-09-20T21:11:56;19.10;61.60
68766;DHT22;55756;45.582;11.484;2022-09-20T21:14:22;19.10;61.90
68766;DHT22;55756;45.582;11.484;2022-09-20T21:16:50;19.00;62.10
68766;DHT22;55756;45.582;11.484;2022-09-20T21:19:16;18.90;62.50
68766;DHT22;55756;45.582;11.484;2022-09-20T21:21:45;18.80;63.00
68766;DHT22;55756;45.582;11.484;2022-09-20T21:24:13;18.70;63.20
68766;DHT22;55756;45.582;11.484;2022-09-20T21:26:42;18.80;62.90
68766;DHT22;55756;45.582;11.484;2022-09-20T21:29:13;18.80;62.60
68766;DHT22;55756;45.582;11.484;2022-09-20T21:31:42;18.90;62.70
68766;DHT22;55756;45.582;11.484;2022-09-20T21:34:09;18.80;63.70
68766;DHT22;55756;45.582;11.484;2022-09-20T21:36:36;18.50;65.00
68766;DHT22;55756;45.582;11.484;2022-09-20T21:39:03;18.50;65.20